Yuho Maru No.8 — JD3870 — position and weather

sailwx.info

Track history (hours):
 
Tides and Currents Weather Stations Pressure Air Temp Water Temp Dewpoint Dewpoint Depression Visibility Wind Speed Wind Dir Waves Ship Positions

Yuho Maru No.8

Last reported at 2018-Jun-24 11:12 UTC. Time now 2018-Jun-25 17:33 UTC.
Position N 34°24' E 134°14'.

Length 61 m; draft 4.4 m.

Type: Ship. MMSI: 431006905.

Date/timePositionNaut miles runAvg speedWind from/ knotsBaromVisibWave heightAir tempDewpointWater temp
2018-Jun-24 11:12N 34°24' E 134°14'412.1
2018-Jun-24 10:51N 34°24' E 134°19'410.6
2018-Jun-24 10:30N 34°22' E 134°23'612.1
2018-Jun-24 10:00N 34°19' E 134°29'912.0
2018-Jun-24 09:13N 34°14' E 134°39'313.0
2018-Jun-24 09:00N 34°12' E 134°41'612.6
2018-Jun-24 08:29N 34°07' E 134°46'712.7
2018-Jun-24 07:57N 34°02' E 134°51'612.8
2018-Jun-24 07:30N 33°57' E 134°56'612.3
2018-Jun-24 06:59N 33°52' E 135°01'243 9.3
2018-Jun-23 04:59N 35°07' E 139°42'610.9
2018-Jun-23 04:26N 35°12' E 139°46'510.6
2018-Jun-23 04:00N 35°16' E 139°46'611.1
2018-Jun-23 03:30N 35°21' E 139°42'510.7
2018-Jun-23 03:00N 35°26' E 139°45'5 9.2
2018-Jun-23 02:30N 35°30' E 139°47'2 0.3
2018-Jun-22 21:57N 35°31' E 139°46'1 2.6
2018-Jun-22 21:30N 35°30' E 139°47'611.1
2018-Jun-22 20:58N 35°32' E 139°53'6 0.1
2018-Jun-21 05:19N 35°37' E 139°57'3 8.8
2018-Jun-21 05:00N 35°35' E 139°54'5 1.4
2018-Jun-21 01:15N 35°40' E 139°57'3 5.9
2018-Jun-21 00:47N 35°38' E 139°58'310.7
2018-Jun-21 00:30N 35°36' E 139°54'0 0.0
2018-Jun-20 10:19N 35°36' E 139°54'7 1.0
2018-Jun-20 03:37N 35°30' E 139°56'110.4
2018-Jun-20 03:30N 35°29' E 139°54'610.8
2018-Jun-20 02:58N 35°26' E 139°48'510.7
2018-Jun-20 02:30N 35°22' E 139°45'5 9.6
2018-Jun-20 02:00N 35°17' E 139°46'248 9.5
2018-Jun-18 23:49N 33°55' E 135°02'311.0
2018-Jun-18 23:30N 33°58' E 135°02'611.1
2018-Jun-18 23:00N 34°04' E 135°02'611.4
2018-Jun-18 22:30N 34°09' E 135°02'611.8
2018-Jun-18 22:00N 34°15' E 135°02'611.8
2018-Jun-18 21:30N 34°20' E 135°06'510.2
2018-Jun-18 21:00N 34°24' E 135°11'0 0.2
2018-Jun-18 20:30N 34°24' E 135°11'0 0.0
2018-Jun-18 18:20N 34°24' E 135°11'0 0.0
2018-Jun-18 17:50N 34°24' E 135°11'0 0.0
2018-Jun-18 17:29N 34°24' E 135°11'0 0.1
2018-Jun-18 16:59N 34°24' E 135°11'0 0.0
2018-Jun-18 16:29N 34°24' E 135°11'0 0.0
2018-Jun-18 15:53N 34°24' E 135°11'0 0.1
2018-Jun-18 15:14N 34°24' E 135°11'0 0.0
2018-Jun-18 14:59N 34°24' E 135°11'0 0.0
2018-Jun-18 14:26N 34°24' E 135°11'0 0.1
2018-Jun-18 13:56N 34°24' E 135°11'0 0.0
2018-Jun-18 13:23N 34°24' E 135°11'0 0.0
2018-Jun-18 12:56N 34°24' E 135°11'0 0.0
2018-Jun-18 12:29N 34°24' E 135°11'0 0.0
2018-Jun-18 11:59N 34°24' E 135°11'0 0.1
2018-Jun-18 11:23N 34°24' E 135°11'0 0.1
2018-Jun-18 09:53N 34°24' E 135°11'0 0.0
2018-Jun-18 09:29N 34°24' E 135°11'0 0.0
2018-Jun-18 07:44N 34°24' E 135°11'0 0.0
2018-Jun-18 07:20N 34°24' E 135°11'0 0.0
2018-Jun-18 06:56N 34°24' E 135°11'0 0.0
2018-Jun-18 06:08N 34°24' E 135°11'0 0.0
2018-Jun-18 05:56N 34°24' E 135°11'0 0.0
2018-Jun-18 05:26N 34°24' E 135°11'0 0.0
2018-Jun-18 04:59N 34°24' E 135°11'0 0.0
2018-Jun-18 04:29N 34°24' E 135°11'0 0.0
2018-Jun-18 03:56N 34°24' E 135°11'0 0.0
2018-Jun-18 03:23N 34°24' E 135°11'0 0.0
2018-Jun-18 02:59N 34°24' E 135°11'0 0.1
2018-Jun-18 02:29N 34°24' E 135°11'0 0.0
2018-Jun-17 23:08N 34°24' E 135°11'0 0.9
2018-Jun-17 23:01N 34°24' E 135°11'611.0
2018-Jun-17 22:30N 34°28' E 135°07'611.4
2018-Jun-17 22:00N 34°34' E 135°04'710.8
2018-Jun-17 21:22N 34°36' E 134°56'412.5
2018-Jun-17 21:00N 34°34' E 134°51'611.9
2018-Jun-17 20:30N 34°32' E 134°45'611.7
2018-Jun-17 20:00N 34°29' E 134°38'611.9
2018-Jun-17 19:30N 34°27' E 134°32'611.9
2018-Jun-17 18:58N 34°25' E 134°24'  
2018-Jun-15 13:37N 34°24' E 134°19'212.1
2018-Jun-15 13:27N 34°23' E 134°21'511.5
2018-Jun-15 13:00N 34°20' E 134°27'1211.5
2018-Jun-15 11:56N 34°14' E 134°39'7 9.6
2018-Jun-15 11:12N 34°08' E 134°45'2 7.9
2018-Jun-15 11:00N 34°07' E 134°46'4 8.1
2018-Jun-15 10:30N 34°04' E 134°49'4 7.7
2018-Jun-15 10:00N 34°01' E 134°53'4 7.7
2018-Jun-15 09:30N 33°59' E 134°55'5 8.0
2018-Jun-15 08:56N 33°55' E 134°58'3 7.4
2018-Jun-15 08:29N 33°52' E 135°01'  
Track history (hours):
 
Tides and Currents Weather Stations Pressure Air Temp Water Temp Dewpoint Dewpoint Depression Visibility Wind Speed Wind Dir Waves Ship Positions

Yuho Maru No.8

Last reported at 2018-Jun-24 11:12 UTC. Time now 2018-Jun-25 17:33 UTC.
Position N 34°24' E 134°14'.

Length 61 m; draft 4.4 m.

Type: Ship. MMSI: 431006905.

Date/timePositionNaut miles runAvg speedWind from/ knotsBaromVisibWave heightAir tempDewpointWater temp
2018-Jun-24 11:12N 34°24' E 134°14'412.1
2018-Jun-24 10:51N 34°24' E 134°19'410.6
2018-Jun-24 10:30N 34°22' E 134°23'612.1
2018-Jun-24 10:00N 34°19' E 134°29'912.0
2018-Jun-24 09:13N 34°14' E 134°39'313.0
2018-Jun-24 09:00N 34°12' E 134°41'612.6
2018-Jun-24 08:29N 34°07' E 134°46'712.7
2018-Jun-24 07:57N 34°02' E 134°51'612.8
2018-Jun-24 07:30N 33°57' E 134°56'612.3
2018-Jun-24 06:59N 33°52' E 135°01'243 9.3
2018-Jun-23 04:59N 35°07' E 139°42'610.9
2018-Jun-23 04:26N 35°12' E 139°46'510.6
2018-Jun-23 04:00N 35°16' E 139°46'611.1
2018-Jun-23 03:30N 35°21' E 139°42'510.7
2018-Jun-23 03:00N 35°26' E 139°45'5 9.2
2018-Jun-23 02:30N 35°30' E 139°47'2 0.3
2018-Jun-22 21:57N 35°31' E 139°46'1 2.6
2018-Jun-22 21:30N 35°30' E 139°47'611.1
2018-Jun-22 20:58N 35°32' E 139°53'6 0.1
2018-Jun-21 05:19N 35°37' E 139°57'3 8.8
2018-Jun-21 05:00N 35°35' E 139°54'5 1.4
2018-Jun-21 01:15N 35°40' E 139°57'3 5.9
2018-Jun-21 00:47N 35°38' E 139°58'310.7
2018-Jun-21 00:30N 35°36' E 139°54'0 0.0
2018-Jun-20 10:19N 35°36' E 139°54'7 1.0
2018-Jun-20 03:37N 35°30' E 139°56'110.4
2018-Jun-20 03:30N 35°29' E 139°54'610.8
2018-Jun-20 02:58N 35°26' E 139°48'510.7
2018-Jun-20 02:30N 35°22' E 139°45'5 9.6
2018-Jun-20 02:00N 35°17' E 139°46'248 9.5
2018-Jun-18 23:49N 33°55' E 135°02'311.0
2018-Jun-18 23:30N 33°58' E 135°02'611.1
2018-Jun-18 23:00N 34°04' E 135°02'611.4
2018-Jun-18 22:30N 34°09' E 135°02'611.8
2018-Jun-18 22:00N 34°15' E 135°02'611.8
2018-Jun-18 21:30N 34°20' E 135°06'510.2
2018-Jun-18 21:00N 34°24' E 135°11'0 0.2
2018-Jun-18 20:30N 34°24' E 135°11'0 0.0
2018-Jun-18 18:20N 34°24' E 135°11'0 0.0
2018-Jun-18 17:50N 34°24' E 135°11'0 0.0
2018-Jun-18 17:29N 34°24' E 135°11'0 0.1
2018-Jun-18 16:59N 34°24' E 135°11'0 0.0
2018-Jun-18 16:29N 34°24' E 135°11'0 0.0
2018-Jun-18 15:53N 34°24' E 135°11'0 0.1
2018-Jun-18 15:14N 34°24' E 135°11'0 0.0
2018-Jun-18 14:59N 34°24' E 135°11'0 0.0
2018-Jun-18 14:26N 34°24' E 135°11'0 0.1
2018-Jun-18 13:56N 34°24' E 135°11'0 0.0
2018-Jun-18 13:23N 34°24' E 135°11'0 0.0
2018-Jun-18 12:56N 34°24' E 135°11'0 0.0
2018-Jun-18 12:29N 34°24' E 135°11'0 0.0
2018-Jun-18 11:59N 34°24' E 135°11'0 0.1
2018-Jun-18 11:23N 34°24' E 135°11'0 0.1
2018-Jun-18 09:53N 34°24' E 135°11'0 0.0
2018-Jun-18 09:29N 34°24' E 135°11'0 0.0
2018-Jun-18 07:44N 34°24' E 135°11'0 0.0
2018-Jun-18 07:20N 34°24' E 135°11'0 0.0
2018-Jun-18 06:56N 34°24' E 135°11'0 0.0
2018-Jun-18 06:08N 34°24' E 135°11'0 0.0
2018-Jun-18 05:56N 34°24' E 135°11'0 0.0
2018-Jun-18 05:26N 34°24' E 135°11'0 0.0
2018-Jun-18 04:59N 34°24' E 135°11'0 0.0
2018-Jun-18 04:29N 34°24' E 135°11'0 0.0
2018-Jun-18 03:56N 34°24' E 135°11'0 0.0
2018-Jun-18 03:23N 34°24' E 135°11'0 0.0
2018-Jun-18 02:59N 34°24' E 135°11'0 0.1
2018-Jun-18 02:29N 34°24' E 135°11'0 0.0
2018-Jun-17 23:08N 34°24' E 135°11'0 0.9
2018-Jun-17 23:01N 34°24' E 135°11'611.0
2018-Jun-17 22:30N 34°28' E 135°07'611.4
2018-Jun-17 22:00N 34°34' E 135°04'710.8
2018-Jun-17 21:22N 34°36' E 134°56'412.5
2018-Jun-17 21:00N 34°34' E 134°51'611.9
2018-Jun-17 20:30N 34°32' E 134°45'611.7
2018-Jun-17 20:00N 34°29' E 134°38'611.9
2018-Jun-17 19:30N 34°27' E 134°32'611.9
2018-Jun-17 18:58N 34°25' E 134°24'  
2018-Jun-15 13:37N 34°24' E 134°19'212.1
2018-Jun-15 13:27N 34°23' E 134°21'511.5
2018-Jun-15 13:00N 34°20' E 134°27'1211.5
2018-Jun-15 11:56N 34°14' E 134°39'7 9.6
2018-Jun-15 11:12N 34°08' E 134°45'2 7.9
2018-Jun-15 11:00N 34°07' E 134°46'4 8.1
2018-Jun-15 10:30N 34°04' E 134°49'4 7.7
2018-Jun-15 10:00N 34°01' E 134°53'4 7.7
2018-Jun-15 09:30N 33°59' E 134°55'5 8.0
2018-Jun-15 08:56N 33°55' E 134°58'3 7.4
2018-Jun-15 08:29N 33°52' E 135°01'  

Dump ship's entire track history